Aeroporto :
LOGIN :

Iscrizione | Disclaimer

   EN    FR    IT 

 










Sommario :    VFR   VFR Marginale   IFR   IFR Intensivo   IFR Molto Intensivo
Visibilità : 
Base nubi : 
>= 8 km
>= 3000ft
5 / 8 km
1000 / 3000 ft
1500m / 5 km
500 / 1000 ft
800 / 1500m
200 / 500 ft
< 800m
< 200 ft
Simboli :   Temporali  Nebbia  Neve Forte  Precipitazioni Forti  Vento > 20 kt
SIGMETs :   Varie  Temporali  Ghiacco  Turbolenza  Onda orograficha  Ceneri Vulcaniche






- Altitudine del aeroporto : 25 ft
- Codice IATA : QCY


EGXC - RAF Coningsby

ULTIMO METAR :
  • 270050Z 21006KT 8000 BR BKN010 BKN050 05/05 Q1002 RMK GRN

METARs OBSOLETI :
  • 262350Z 21007KT 5000 BR BKN080 05/05 Q1003 RMK WHT
  • 262250Z 21005KT 4000 BR FEW080 04/04 Q1003 RMK GRN

TAF TAF EGXC
Valido dal 27 a 00 ore il 27 a 18 ore UTC


262253Z 2700/2718 22006KT 9999 SCT030
TEMPO 2700/2709 6000 BR SCT008
PROB40
TEMPO 2700/2706 3000 -RADZ BKN004
TEMPO 2709/2718 SCT012



MetMap, La meteo Aeronautica in un colpo d'occhio ! - Copyright ORBIFLY Dicembre 2007 - Disclaimer

ORBIFLY MET'MAP TEAM :

Programmazione e sviluppo : Alexandra Zaïnal
Concezione : Baudouin d'Aumeries
Aiuto per la programmazione : Marc-Olivier Méhu
Supporto tecnico e logistico : Manuel Goepfert
Aiuto per la traduzione : Arnaldo La Scala

Contatto : metmap@orbifly.com




FONTI E CREDITI :

   NOAA